Time;durP1;ratioP1;P1;durP2;ratioP2;P2;SDS_P1;SDS_P2;PMS_P1;PMS_P2;Temp;Humidity;BMP_temperature;BMP_pressure;BME280_temperature;BME280_humidity;BME280_pressure;Samples;Min_cycle;Max_cycle;Signal;HPM_P1;HPM_P2
2022/07/08 00:00:05;;;;;;;;;;;19.80;92.70;19.80;100457.00;;;;344609;28;83542;-90
2022/07/08 00:00:17;;;;;;;;;;;19.80;92.70;19.80;100453.00;;;;342557;28;94564;-89
2022/07/08 00:00:30;;;;;;;;;;;19.80;92.70;19.90;100452.00;;;;346183;28;83466;-89
2022/07/08 00:00:42;;;;;;;;;;;19.80;92.70;19.80;100455.00;;;;344286;28;94392;-90
2022/07/08 00:00:54;;;;;;;;;;;19.80;92.70;19.90;100460.00;;;;343662;28;82371;-90
2022/07/08 00:01:05;;;;;;;;;;;19.80;92.70;19.80;100453.00;;;;343622;28;94590;-90
2022/07/08 00:01:17;;;;;;;;;;;19.80;92.70;19.80;100460.00;;;;344742;28;83297;-90
2022/07/08 00:01:29;;;;;;;;;;;19.80;92.70;19.80;100450.00;;;;344018;28;95349;-90
2022/07/08 00:01:41;;;;;;;;;;;19.80;92.80;19.80;100444.00;;;;343533;28;83022;-90
2022/07/08 00:01:54;;;;;;;;;;;19.80;92.70;19.80;100447.00;;;;342098;28;95318;-90
2022/07/08 00:02:06;;;;;;;;;;;19.70;92.70;19.80;100454.00;;;;346126;28;82580;-90
2022/07/08 00:02:18;;;;;;;;;;;19.80;92.70;19.80;100450.00;;;;345030;28;96517;-89
2022/07/08 00:02:30;;;;;;;;;;;19.80;92.70;19.90;100447.00;;;;343143;28;83516;-89
2022/07/08 00:02:42;;;;;;;;;;;19.80;92.70;19.90;100453.00;;;;342422;28;94531;-90
2022/07/08 00:02:54;;;;;;;;;;;19.80;92.70;19.80;100457.00;;;;344919;28;82325;-90
2022/07/08 00:03:06;;;;;;;;;;;19.80;92.70;19.80;100453.00;;;;342667;28;94777;-90
2022/07/08 00:03:18;;;;;;;;;;;19.70;92.70;19.90;100459.00;;;;342072;28;82682;-90
2022/07/08 00:03:30;;;;;;;;;;;19.80;92.70;19.90;100449.00;;;;344147;28;94102;-90
2022/07/08 00:03:43;;;;;;;;;;;19.80;92.70;19.90;100454.00;;;;343403;28;83514;-90
2022/07/08 00:03:55;;;;;;;;;;;19.80;92.80;19.90;100454.00;;;;342373;28;95567;-90
2022/07/08 00:04:07;;;;;;;;;;;19.80;92.80;19.90;100447.00;;;;343073;28;83694;-90
2022/07/08 00:04:19;;;;;;;;;;;19.80;92.80;19.80;100467.00;;;;345159;28;95600;-90
2022/07/08 00:04:31;;;;;;;;;;;19.80;92.70;19.80;100452.00;;;;343284;28;82577;-89
2022/07/08 00:04:43;;;;;;;;;;;19.70;92.70;19.80;100452.00;;;;343917;28;97431;-90
2022/07/08 00:04:54;;;;;;;;;;;19.80;92.80;19.80;100455.00;;;;343929;28;88796;-89
2022/07/08 00:05:07;;;;;;;;;;;19.80;92.80;19.80;100440.00;;;;344023;28;96000;-90
2022/07/08 00:05:19;;;;;;;;;;;19.70;92.80;19.80;100461.00;;;;344740;28;83426;-90
2022/07/08 00:05:30;;;;;;;;;;;19.80;92.80;19.80;100456.00;;;;344121;28;93119;-90
2022/07/08 00:05:42;;;;;;;;;;;19.70;92.70;19.70;100457.00;;;;343516;28;83487;-90
2022/07/08 00:05:54;;;;;;;;;;;19.80;92.80;19.70;100454.00;;;;343944;28;95139;-90
2022/07/08 00:06:06;;;;;;;;;;;19.70;92.70;19.70;100456.00;;;;343489;28;83866;-90
2022/07/08 00:06:18;;;;;;;;;;;19.70;92.70;19.70;100447.00;;;;342783;28;93487;-89
2022/07/08 00:06:30;;;;;;;;;;;19.70;92.70;19.70;100456.00;;;;344103;28;83464;-89
2022/07/08 00:06:42;;;;;;;;;;;19.70;92.80;19.70;100464.00;;;;342344;28;95682;-89
2022/07/08 00:06:54;;;;;;;;;;;19.70;92.80;19.70;100456.00;;;;342146;28;82437;-90
2022/07/08 00:07:05;;;;;;;;;;;19.70;92.80;19.80;100456.00;;;;343858;28;95774;-90
2022/07/08 00:07:17;;;;;;;;;;;19.70;92.80;19.80;100456.00;;;;343211;28;83530;-90
2022/07/08 00:07:29;;;;;;;;;;;19.70;92.80;19.80;100455.00;;;;342601;28;94876;-89
2022/07/08 00:07:41;;;;;;;;;;;19.70;92.80;19.80;100457.00;;;;344556;28;83874;-89
2022/07/08 00:07:53;;;;;;;;;;;19.70;92.70;19.70;100454.00;;;;343634;28;97339;-90
2022/07/08 00:08:04;;;;;;;;;;;19.70;92.70;19.70;100452.00;;;;345130;28;83524;-90
2022/07/08 00:08:19;;;;;;;;;;;19.70;92.70;19.70;100459.00;;;;345441;28;96483;-89
2022/07/08 00:08:31;;;;;;;;;;;19.70;92.70;19.70;100462.00;;;;346229;28;83370;-90
2022/07/08 00:08:44;;;;;;;;;;;19.70;92.70;19.70;100455.00;;;;346795;28;93364;-90
2022/07/08 00:08:56;;;;;;;;;;;19.70;92.80;19.70;100459.00;;;;343435;28;82597;-90
2022/07/08 00:09:10;;;;;;;;;;;19.70;92.70;19.70;100452.00;;;;344073;28;94151;-90
2022/07/08 00:09:21;;;;;;;;;;;19.70;92.80;19.70;100457.00;;;;344899;28;83481;-90
2022/07/08 00:09:33;;;;;;;;;;;19.70;92.80;19.70;100459.00;;;;344067;28;95493;-89
2022/07/08 00:09:45;;;;;;;;;;;19.70;92.80;19.70;100441.00;;;;344552;28;83515;-90
2022/07/08 00:09:57;;;;;;;;;;;19.70;92.80;19.60;100452.00;;;;343929;28;96567;-90
2022/07/08 00:10:09;;;;;;;;;;;19.70;92.80;19.60;100454.00;;;;342053;28;82534;-90
2022/07/08 00:10:21;;;;;;;;;;;19.70;92.80;19.70;100447.00;;;;345161;28;95573;-90
2022/07/08 00:10:33;;;;;;;;;;;19.70;92.80;19.70;100448.00;;;;344754;28;82408;-90
2022/07/08 00:10:45;;;;;;;;;;;19.70;92.80;19.70;100454.00;;;;345214;28;94533;-90
2022/07/08 00:10:57;;;;;;;;;;;19.60;92.80;19.70;100448.00;;;;342857;28;84387;-89
2022/07/08 00:11:09;;;;;;;;;;;19.60;92.80;19.70;100460.00;;;;344429;28;95642;-90
2022/07/08 00:11:21;;;;;;;;;;;19.70;92.80;19.70;100451.00;;;;344532;28;82622;-90
2022/07/08 00:11:33;;;;;;;;;;;19.70;92.80;19.70;100458.00;;;;342750;28;93392;-90
2022/07/08 00:11:44;;;;;;;;;;;19.60;92.80;19.70;100454.00;;;;341985;28;83378;-90
2022/07/08 00:11:56;;;;;;;;;;;19.60;92.80;19.70;100453.00;;;;342473;28;95644;-90
2022/07/08 00:12:08;;;;;;;;;;;19.60;92.80;19.60;100456.00;;;;344803;28;83493;-89
2022/07/08 00:12:20;;;;;;;;;;;19.60;92.80;19.60;100453.00;;;;341924;28;96635;-90
2022/07/08 00:12:32;;;;;;;;;;;19.60;92.80;19.60;100450.00;;;;344793;28;82565;-90
2022/07/08 00:12:44;;;;;;;;;;;19.60;92.70;19.60;100456.00;;;;342605;28;97064;-90
2022/07/08 00:12:56;;;;;;;;;;;19.60;92.80;19.70;100457.00;;;;343489;28;82487;-89
2022/07/08 00:13:07;;;;;;;;;;;19.60;92.80;19.70;100455.00;;;;343999;28;94717;-90
2022/07/08 00:13:19;;;;;;;;;;;19.60;92.80;19.60;100462.00;;;;345885;28;83502;-89
2022/07/08 00:13:31;;;;;;;;;;;19.60;92.80;19.60;100464.00;;;;345122;28;95493;-89
2022/07/08 00:13:43;;;;;;;;;;;19.60;92.80;19.60;100456.00;;;;344793;28;83309;-90
2022/07/08 00:13:54;;;;;;;;;;;19.60;92.80;19.60;100456.00;;;;342621;28;95858;-89
2022/07/08 00:14:06;;;;;;;;;;;19.60;92.90;19.60;100454.00;;;;344783;28;83411;-90
2022/07/08 00:14:18;;;;;;;;;;;19.60;92.80;19.60;100456.00;;;;343882;28;96336;-89
2022/07/08 00:14:30;;;;;;;;;;;19.60;92.80;19.70;100458.00;;;;344588;28;82597;-89
2022/07/08 00:14:42;;;;;;;;;;;19.60;92.80;19.60;100453.00;;;;344021;28;94213;-90
2022/07/08 00:14:53;;;;;;;;;;;19.60;92.80;19.60;100453.00;;;;345529;28;83399;-89
2022/07/08 00:15:06;;;;;;;;;;;19.60;92.90;19.60;100458.00;;;;345441;28;94201;-90
2022/07/08 00:15:18;;;;;;;;;;;19.60;92.90;19.60;100460.00;;;;345954;28;83535;-90
2022/07/08 00:15:30;;;;;;;;;;;19.60;92.80;19.60;100457.00;;;;345427;28;94182;-90
2022/07/08 00:15:41;;;;;;;;;;;19.60;92.80;19.60;100462.00;;;;344850;28;83437;-90
2022/07/08 00:15:53;;;;;;;;;;;19.60;92.80;19.60;100456.00;;;;342594;28;95154;-89
2022/07/08 00:16:06;;;;;;;;;;;19.60;92.90;19.60;100463.00;;;;344603;28;83462;-90
2022/07/08 00:16:18;;;;;;;;;;;19.60;93.00;19.60;100457.00;;;;342704;28;96473;-90
2022/07/08 00:16:30;;;;;;;;;;;19.50;92.90;19.60;100458.00;;;;344793;28;83169;-89
2022/07/08 00:16:43;;;;;;;;;;;19.60;92.90;19.60;100457.00;;;;343898;28;95851;-90
2022/07/08 00:16:55;;;;;;;;;;;19.60;92.90;19.70;100453.00;;;;346016;28;82363;-90
2022/07/08 00:17:07;;;;;;;;;;;19.60;92.80;19.70;100458.00;;;;344451;28;95465;-90
2022/07/08 00:17:18;;;;;;;;;;;19.60;92.90;19.70;100449.00;;;;344903;28;82522;-89
2022/07/08 00:17:30;;;;;;;;;;;19.60;92.80;19.70;100456.00;;;;343958;28;93023;-90
2022/07/08 00:17:42;;;;;;;;;;;19.60;92.90;19.60;100455.00;;;;344866;28;83276;-90
2022/07/08 00:17:54;;;;;;;;;;;19.60;92.80;19.50;100454.00;;;;343759;28;95022;-89
2022/07/08 00:18:06;;;;;;;;;;;19.60;92.90;19.60;100448.00;;;;343170;28;83557;-90
2022/07/08 00:18:18;;;;;;;;;;;19.60;92.80;19.60;100452.00;;;;345219;28;94160;-88
2022/07/08 00:18:29;;;;;;;;;;;19.60;92.90;19.60;100458.00;;;;343305;28;82766;-89
2022/07/08 00:18:42;;;;;;;;;;;19.60;92.90;19.60;100461.00;;;;345306;28;93398;-89
2022/07/08 00:18:54;;;;;;;;;;;19.60;92.90;19.60;100468.00;;;;345947;28;83645;-89
2022/07/08 00:19:07;;;;;;;;;;;19.60;92.80;19.50;100459.00;;;;342490;28;94864;-90
2022/07/08 00:19:19;;;;;;;;;;;19.50;92.80;19.60;100447.00;;;;345285;28;82566;-90
2022/07/08 00:19:31;;;;;;;;;;;19.50;92.80;19.50;100480.00;;;;344553;28;95503;-89
2022/07/08 00:19:43;;;;;;;;;;;19.60;92.80;19.50;100453.00;;;;345648;28;83570;-89
2022/07/08 00:19:55;;;;;;;;;;;19.50;92.80;19.50;100455.00;;;;343882;28;96272;-91
2022/07/08 00:20:08;;;;;;;;;;;19.50;92.80;19.50;100446.00;;;;344953;28;83328;-90
2022/07/08 00:20:20;;;;;;;;;;;19.50;92.80;19.50;100458.00;;;;345957;28;93638;-91
2022/07/08 00:20:32;;;;;;;;;;;19.50;92.80;19.60;100457.00;;;;344895;28;82604;-89
2022/07/08 00:20:44;;;;;;;;;;;19.50;92.80;19.60;100459.00;;;;344942;28;95566;-90
2022/07/08 00:20:55;;;;;;;;;;;19.50;92.80;19.60;100461.00;;;;343770;28;82594;-89
2022/07/08 00:21:07;;;;;;;;;;;19.50;92.80;19.60;100451.00;;;;343138;28;95701;-90
2022/07/08 00:21:19;;;;;;;;;;;19.50;92.80;19.60;100463.00;;;;343729;28;83227;-90
2022/07/08 00:21:31;;;;;;;;;;;19.50;92.80;19.50;100452.00;;;;344536;28;93453;-90
2022/07/08 00:21:43;;;;;;;;;;;19.50;92.80;19.50;100457.00;;;;343928;28;83567;-89
2022/07/08 00:21:55;;;;;;;;;;;19.50;92.80;19.50;100465.00;;;;344216;28;94036;-90
2022/07/08 00:22:07;;;;;;;;;;;19.50;92.80;19.50;100454.00;;;;346152;28;82607;-90
2022/07/08 00:22:19;;;;;;;;;;;19.50;92.80;19.50;100459.00;;;;345562;28;92440;-92
2022/07/08 00:22:33;;;;;;;;;;;19.50;92.80;19.50;100450.00;;;;345249;28;82300;-89
2022/07/08 00:22:45;;;;;;;;;;;19.50;92.80;19.50;100465.00;;;;345203;28;93133;-90
2022/07/08 00:22:57;;;;;;;;;;;19.50;92.80;19.50;100458.00;;;;347791;28;83439;-90
2022/07/08 00:23:08;;;;;;;;;;;19.50;92.90;19.50;100448.00;;;;345059;28;95134;-90
2022/07/08 00:23:20;;;;;;;;;;;19.50;92.80;19.50;100454.00;;;;346424;28;82502;-89
2022/07/08 00:23:32;;;;;;;;;;;19.50;92.80;19.50;100454.00;;;;347056;28;92187;-90
2022/07/08 00:23:44;;;;;;;;;;;19.50;92.90;19.50;100452.00;;;;347778;28;83269;-92
2022/07/08 00:23:56;;;;;;;;;;;19.50;92.90;19.50;100458.00;;;;345722;28;95891;-89
2022/07/08 00:24:08;;;;;;;;;;;19.50;92.80;19.40;100461.00;;;;346424;28;82457;-90
2022/07/08 00:24:19;;;;;;;;;;;19.50;92.80;19.40;100448.00;;;;346838;28;93445;-91
2022/07/08 00:24:31;;;;;;;;;;;19.50;92.90;19.50;100452.00;;;;347569;28;82363;-89
2022/07/08 00:24:43;;;;;;;;;;;19.50;92.90;19.50;100461.00;;;;345782;28;93540;-91
2022/07/08 00:24:55;;;;;;;;;;;19.40;92.80;19.50;100458.00;;;;346352;28;83231;-91
2022/07/08 00:25:07;;;;;;;;;;;19.50;92.90;19.50;100451.00;;;;345794;28;91924;-91
2022/07/08 00:25:19;;;;;;;;;;;19.50;92.90;19.50;100456.00;;;;346131;28;82576;-92
2022/07/08 00:25:31;;;;;;;;;;;19.40;92.90;19.50;100456.00;;;;345486;28;95316;-88
2022/07/08 00:25:43;;;;;;;;;;;19.40;92.90;19.50;100453.00;;;;346167;28;82506;-90
2022/07/08 00:25:54;;;;;;;;;;;19.40;92.90;19.50;100452.00;;;;345786;28;95457;-91
2022/07/08 00:26:06;;;;;;;;;;;19.40;92.90;19.50;100457.00;;;;347315;28;83322;-91
2022/07/08 00:26:18;;;;;;;;;;;19.40;92.90;19.50;100463.00;;;;345028;28;95150;-92
2022/07/08 00:26:30;;;;;;;;;;;19.40;92.90;19.50;100451.00;;;;347294;28;82606;-89
2022/07/08 00:26:43;;;;;;;;;;;19.40;93.00;19.50;100456.00;;;;346697;28;92964;-91
2022/07/08 00:26:55;;;;;;;;;;;19.40;92.90;19.50;100451.00;;;;346845;28;83325;-91
2022/07/08 00:27:07;;;;;;;;;;;19.40;92.90;19.50;100459.00;;;;346889;28;93456;-92
2022/07/08 00:27:19;;;;;;;;;;;19.40;92.90;19.50;100446.00;;;;346128;28;83992;-91
2022/07/08 00:27:30;;;;;;;;;;;19.40;92.90;19.50;100448.00;;;;345470;28;94194;-91
2022/07/08 00:27:42;;;;;;;;;;;19.40;92.90;19.50;100456.00;;;;346204;28;83415;-91
2022/07/08 00:27:54;;;;;;;;;;;19.40;92.90;19.50;100458.00;;;;343904;28;94368;-91
2022/07/08 00:28:06;;;;;;;;;;;19.40;92.90;19.40;100452.00;;;;343438;28;83363;-91
2022/07/08 00:28:18;;;;;;;;;;;19.40;92.90;19.50;100453.00;;;;343921;28;96603;-92
2022/07/08 00:28:29;;;;;;;;;;;19.40;92.90;19.50;100453.00;;;;344806;28;83397;-91
2022/07/08 00:28:42;;;;;;;;;;;19.40;92.90;19.50;100451.00;;;;343788;28;95482;-91
2022/07/08 00:28:54;;;;;;;;;;;19.40;92.90;19.50;100457.00;;;;345849;28;83624;-91
2022/07/08 00:29:06;;;;;;;;;;;19.40;92.90;19.50;100459.00;;;;346748;28;95430;-91
2022/07/08 00:29:18;;;;;;;;;;;19.40;93.00;19.40;100456.00;;;;348988;27;83288;-91
2022/07/08 00:29:29;;;;;;;;;;;19.40;92.90;19.40;100453.00;;;;345419;28;93584;-91
2022/07/08 00:29:41;;;;;;;;;;;19.40;92.90;19.50;100456.00;;;;346374;28;83286;-91
2022/07/08 00:29:53;;;;;;;;;;;19.40;92.90;19.50;100456.00;;;;342660;28;96253;-92
2022/07/08 00:30:05;;;;;;;;;;;19.40;92.90;19.40;100455.00;;;;344697;28;83528;-91
2022/07/08 00:30:17;;;;;;;;;;;19.40;92.90;19.50;100461.00;;;;343870;28;94240;-91
2022/07/08 00:30:29;;;;;;;;;;;19.40;92.90;19.50;100459.00;;;;344515;28;83509;-89
2022/07/08 00:30:41;;;;;;;;;;;19.40;92.90;19.50;100459.00;;;;342815;28;96082;-92
2022/07/08 00:30:52;;;;;;;;;;;19.40;92.90;19.50;100461.00;;;;347797;28;83231;-92
2022/07/08 00:31:04;;;;;;;;;;;19.40;93.00;19.50;100456.00;;;;345161;28;96031;-91
2022/07/08 00:31:16;;;;;;;;;;;19.40;92.90;19.50;100465.00;;;;343395;28;82519;-91
2022/07/08 00:31:28;;;;;;;;;;;19.40;93.00;19.50;100456.00;;;;345450;28;93414;-91
2022/07/08 00:31:40;;;;;;;;;;;19.40;92.90;19.40;100461.00;;;;347339;28;83448;-91
2022/07/08 00:31:52;;;;;;;;;;;19.40;92.90;19.40;100463.00;;;;344244;28;94453;-91
2022/07/08 00:32:05;;;;;;;;;;;19.40;92.90;19.40;100454.00;;;;343482;28;82448;-91
2022/07/08 00:32:18;;;;;;;;;;;19.40;92.90;19.40;100455.00;;;;343600;28;93398;-91
2022/07/08 00:32:35;;;;;;;;;;;19.40;92.90;19.40;100461.00;;;;345965;28;83323;-91
2022/07/08 00:32:47;;;;;;;;;;;19.40;92.90;19.40;100456.00;;;;342672;28;94331;-90
2022/07/08 00:32:59;;;;;;;;;;;19.30;92.90;19.40;100454.00;;;;344578;28;83460;-92
2022/07/08 00:33:11;;;;;;;;;;;19.40;92.90;19.40;100457.00;;;;344004;28;94128;-92
2022/07/08 00:33:23;;;;;;;;;;;19.30;92.90;19.30;100469.00;;;;344666;28;83501;-91
2022/07/08 00:33:35;;;;;;;;;;;19.30;92.90;19.30;100456.00;;;;341331;28;96983;-91
2022/07/08 00:33:46;;;;;;;;;;;19.30;92.90;19.30;100460.00;;;;343230;28;82605;-92
2022/07/08 00:33:58;;;;;;;;;;;19.30;93.00;19.40;100453.00;;;;342209;28;96089;-91
2022/07/08 00:34:10;;;;;;;;;;;19.30;93.00;19.40;100448.00;;;;346002;28;83481;-91
2022/07/08 00:34:22;;;;;;;;;;;19.30;93.00;19.40;100456.00;;;;342588;28;93123;-91
2022/07/08 00:34:34;;;;;;;;;;;19.30;93.00;19.40;100458.00;;;;343765;28;83482;-91
2022/07/08 00:34:46;;;;;;;;;;;19.30;92.90;19.40;100453.00;;;;345367;28;94561;-92
2022/07/08 00:34:58;;;;;;;;;;;19.30;92.90;19.30;100463.00;;;;344828;28;83364;-91
2022/07/08 00:35:10;;;;;;;;;;;19.30;92.90;19.30;100459.00;;;;346509;28;94547;-90
2022/07/08 00:35:22;;;;;;;;;;;19.30;93.00;19.30;100455.00;;;;346094;28;83395;-91
2022/07/08 00:35:34;;;;;;;;;;;19.30;93.00;19.30;100461.00;;;;344020;28;95480;-91
2022/07/08 00:35:46;;;;;;;;;;;19.30;93.00;19.40;100454.00;;;;343216;28;83466;-91
2022/07/08 00:35:58;;;;;;;;;;;19.30;93.00;19.40;100467.00;;;;343510;28;95495;-91
2022/07/08 00:36:09;;;;;;;;;;;19.30;93.00;19.40;100458.00;;;;343543;28;82373;-91
2022/07/08 00:36:21;;;;;;;;;;;19.30;93.00;19.30;100459.00;;;;342658;28;95628;-91
2022/07/08 00:36:35;;;;;;;;;;;19.30;93.00;19.40;100457.00;;;;344647;28;82568;-91
2022/07/08 00:36:47;;;;;;;;;;;19.30;93.00;19.30;100456.00;;;;342780;28;93271;-91
2022/07/08 00:36:59;;;;;;;;;;;19.30;93.10;19.40;100452.00;;;;343500;28;83318;-91
2022/07/08 00:37:11;;;;;;;;;;;19.30;93.00;19.40;100460.00;;;;343967;28;94408;-91
2022/07/08 00:37:23;;;;;;;;;;;19.30;93.00;19.40;100464.00;;;;343217;28;84043;-91
2022/07/08 00:37:34;;;;;;;;;;;19.30;93.00;19.30;100463.00;;;;341336;28;94734;-91
2022/07/08 00:37:46;;;;;;;;;;;19.30;93.00;19.30;100457.00;;;;343434;28;83656;-91
2022/07/08 00:37:58;;;;;;;;;;;19.30;93.00;19.30;100458.00;;;;342216;28;95567;-91
2022/07/08 00:38:10;;;;;;;;;;;19.30;93.00;19.30;100463.00;;;;344283;28;83629;-92
2022/07/08 00:38:22;;;;;;;;;;;19.30;93.00;19.30;100457.00;;;;341933;28;93270;-91
2022/07/08 00:38:35;;;;;;;;;;;19.20;93.00;19.30;100459.00;;;;342100;28;83526;-91
2022/07/08 00:38:47;;;;;;;;;;;19.30;93.00;19.30;100464.00;;;;343592;28;94663;-91
2022/07/08 00:38:58;;;;;;;;;;;19.20;93.00;19.30;100462.00;;;;344775;28;83401;-92
2022/07/08 00:39:10;;;;;;;;;;;19.30;93.10;19.30;100461.00;;;;343763;28;95045;-92
2022/07/08 00:39:22;;;;;;;;;;;19.30;93.10;19.30;100465.00;;;;345928;28;83628;-91
2022/07/08 00:39:34;;;;;;;;;;;19.30;93.10;19.40;100457.00;;;;342688;28;94813;-91
2022/07/08 00:39:46;;;;;;;;;;;19.30;93.10;19.40;100464.00;;;;344489;28;83498;-91
2022/07/08 00:39:58;;;;;;;;;;;19.30;93.10;19.40;100460.00;;;;345201;28;97976;-91
2022/07/08 00:40:11;;;;;;;;;;;19.30;93.10;19.40;100458.00;;;;344822;28;83356;-92
2022/07/08 00:40:23;;;;;;;;;;;19.30;93.10;19.40;100472.00;;;;345390;28;93849;-92
2022/07/08 00:40:36;;;;;;;;;;;19.30;93.10;19.40;100460.00;;;;344195;28;83520;-91
2022/07/08 00:40:48;;;;;;;;;;;19.30;93.00;19.40;100458.00;;;;343579;28;94090;-91
2022/07/08 00:41:02;;;;;;;;;;;19.30;93.00;19.40;100465.00;;;;343289;28;83148;-91
2022/07/08 00:41:15;;;;;;;;;;;19.30;93.00;19.40;100465.00;;;;343862;28;91676;-92
2022/07/08 00:41:26;;;;;;;;;;;19.30;93.00;19.40;100463.00;;;;347058;28;82675;-92
2022/07/08 00:41:39;;;;;;;;;;;19.30;93.00;19.40;100455.00;;;;342323;28;94244;-91
2022/07/08 00:41:50;;;;;;;;;;;19.20;93.00;19.30;100460.00;;;;347660;28;83263;-91
2022/07/08 00:42:03;;;;;;;;;;;19.30;93.00;19.40;100463.00;;;;346496;28;95501;-92
2022/07/08 00:42:15;;;;;;;;;;;19.30;93.00;19.30;100468.00;;;;344575;28;83487;-91
2022/07/08 00:42:27;;;;;;;;;;;19.30;93.00;19.40;100461.00;;;;341239;28;94561;-91
2022/07/08 00:42:38;;;;;;;;;;;19.30;93.00;19.30;100465.00;;;;341646;28;82916;-91
2022/07/08 00:42:50;;;;;;;;;;;19.20;92.90;19.30;100468.00;;;;342568;28;96065;-91
2022/07/08 00:43:02;;;;;;;;;;;19.30;92.90;19.30;100468.00;;;;344561;28;83574;-91
2022/07/08 00:43:27;;;;;;;;;;;19.30;93.00;19.30;100463.00;;;;342688;28;94384;-92
2022/07/08 00:43:43;;;;;;;;;;;19.30;93.00;19.30;100467.00;;;;343327;28;83974;-91
2022/07/08 00:43:55;;;;;;;;;;;19.30;93.00;19.30;100467.00;;;;343654;28;94152;-92
2022/07/08 00:44:07;;;;;;;;;;;19.30;93.00;19.30;100464.00;;;;344185;28;83551;-92
2022/07/08 00:44:19;;;;;;;;;;;19.20;93.00;19.30;100455.00;;;;342633;28;94411;-91
2022/07/08 00:44:32;;;;;;;;;;;19.30;93.00;19.30;100468.00;;;;344442;28;82596;-91
2022/07/08 00:44:44;;;;;;;;;;;19.30;93.00;19.20;100472.00;;;;342628;28;94469;-91
2022/07/08 00:44:56;;;;;;;;;;;19.30;93.00;19.30;100463.00;;;;343627;28;82354;-91
2022/07/08 00:45:08;;;;;;;;;;;19.30;93.00;19.30;100458.00;;;;342648;28;94822;-91
2022/07/08 00:45:20;;;;;;;;;;;19.30;93.00;19.30;100470.00;;;;342141;28;84193;-91
2022/07/08 00:45:31;;;;;;;;;;;19.30;93.00;19.20;100479.00;;;;342710;28;94407;-91
2022/07/08 00:45:44;;;;;;;;;;;19.20;93.10;19.10;100467.00;;;;346052;28;83355;-91
2022/07/08 00:45:55;;;;;;;;;;;19.20;93.10;19.20;100465.00;;;;343769;28;94700;-91
2022/07/08 00:46:08;;;;;;;;;;;19.20;93.00;19.20;100459.00;;;;348685;27;83659;-91
2022/07/08 00:46:21;;;;;;;;;;;19.20;93.00;19.20;100464.00;;;;346141;28;93432;-91
2022/07/08 00:46:33;;;;;;;;;;;19.20;93.00;19.10;100467.00;;;;346039;28;82670;-92
2022/07/08 00:46:45;;;;;;;;;;;19.20;93.10;19.10;100465.00;;;;343516;28;94538;-91
2022/07/08 00:46:57;;;;;;;;;;;19.20;93.10;19.20;100458.00;;;;344882;28;84194;-91
2022/07/08 00:47:08;;;;;;;;;;;19.20;93.10;19.20;100463.00;;;;343978;28;94865;-91
2022/07/08 00:47:20;;;;;;;;;;;19.10;93.10;19.20;100465.00;;;;343512;28;83580;-91
2022/07/08 00:47:32;;;;;;;;;;;19.20;93.10;19.20;100462.00;;;;344089;28;91639;-91
2022/07/08 00:47:44;;;;;;;;;;;19.10;93.10;19.20;100475.00;;;;344495;28;82586;-91
2022/07/08 00:47:56;;;;;;;;;;;19.10;93.10;19.20;100469.00;;;;342584;28;95668;-91
2022/07/08 00:48:07;;;;;;;;;;;19.10;93.10;19.20;100466.00;;;;343409;28;83502;-92
2022/07/08 00:48:19;;;;;;;;;;;19.10;93.10;19.20;100471.00;;;;342655;28;94404;-91
2022/07/08 00:48:31;;;;;;;;;;;19.10;93.10;19.20;100459.00;;;;344789;28;83354;-91
2022/07/08 00:48:43;;;;;;;;;;;19.10;93.10;19.20;100457.00;;;;345191;28;94518;-92
2022/07/08 00:48:55;;;;;;;;;;;19.10;93.20;19.20;100459.00;;;;344675;28;83519;-91
2022/07/08 00:49:07;;;;;;;;;;;19.10;93.10;19.20;100461.00;;;;345181;28;95885;-91
2022/07/08 00:49:22;;;;;;;;;;;19.10;93.10;19.20;100460.00;;;;345876;28;82619;-91
2022/07/08 00:49:34;;;;;;;;;;;19.10;93.10;19.20;100470.00;;;;342716;28;94591;-92
2022/07/08 00:49:45;;;;;;;;;;;19.10;93.10;19.20;100460.00;;;;344373;28;83480;-91
2022/07/08 00:49:57;;;;;;;;;;;19.10;93.10;19.20;100459.00;;;;344427;28;93353;-91
2022/07/08 00:50:10;;;;;;;;;;;19.10;93.10;19.10;100461.00;;;;344467;28;83514;-90
2022/07/08 00:50:22;;;;;;;;;;;19.10;93.10;19.10;100458.00;;;;344595;28;94780;-91
2022/07/08 00:50:34;;;;;;;;;;;19.10;93.10;19.10;100463.00;;;;344688;28;83444;-91
2022/07/08 00:50:45;;;;;;;;;;;19.10;93.10;19.10;100452.00;;;;342995;28;94247;-91
2022/07/08 00:50:59;;;;;;;;;;;19.10;93.20;19.10;100466.00;;;;344592;28;83618;-92
2022/07/08 00:51:15;;;;;;;;;;;19.10;93.20;19.10;100464.00;;;;343731;28;95683;-90
2022/07/08 00:51:27;;;;;;;;;;;19.10;93.20;19.10;100469.00;;;;344811;28;83873;-90
2022/07/08 00:51:39;;;;;;;;;;;19.10;93.20;19.10;100463.00;;;;345104;28;94696;-91
2022/07/08 00:51:51;;;;;;;;;;;19.10;93.20;19.10;100467.00;;;;344837;28;83257;-91
2022/07/08 00:52:04;;;;;;;;;;;19.10;93.20;19.10;100466.00;;;;343821;28;95515;-91
2022/07/08 00:52:16;;;;;;;;;;;19.00;93.20;19.10;100462.00;;;;343124;28;82643;-92
2022/07/08 00:52:28;;;;;;;;;;;19.10;93.30;19.20;100468.00;;;;343978;28;97311;-91
2022/07/08 00:52:40;;;;;;;;;;;19.00;93.20;19.20;100469.00;;;;343491;28;83465;-91
2022/07/08 00:52:52;;;;;;;;;;;19.10;93.20;19.20;100464.00;;;;342778;28;93363;-91
2022/07/08 00:53:03;;;;;;;;;;;19.10;93.20;19.10;100462.00;;;;344579;28;82580;-91
2022/07/08 00:53:15;;;;;;;;;;;19.10;93.20;19.20;100475.00;;;;346459;28;95686;-91
2022/07/08 00:53:28;;;;;;;;;;;19.10;93.20;19.20;100475.00;;;;342975;28;82755;-91
2022/07/08 00:53:41;;;;;;;;;;;19.10;93.20;19.20;100467.00;;;;342669;28;93764;-91
2022/07/08 00:53:53;;;;;;;;;;;19.10;93.20;19.10;100467.00;;;;347295;28;83467;-92
2022/07/08 00:54:05;;;;;;;;;;;19.10;93.20;19.10;100477.00;;;;343475;28;95797;-91
2022/07/08 00:54:18;;;;;;;;;;;19.10;93.30;19.10;100468.00;;;;345918;28;83519;-91
2022/07/08 00:54:30;;;;;;;;;;;19.10;93.20;19.10;100463.00;;;;343366;28;93223;-91
2022/07/08 00:54:42;;;;;;;;;;;19.00;93.10;19.10;100472.00;;;;343538;28;83355;-90
2022/07/08 00:54:54;;;;;;;;;;;19.00;93.10;19.10;100462.00;;;;344085;28;93060;-88
2022/07/08 00:55:07;;;;;;;;;;;19.10;93.10;19.10;100459.00;;;;343489;28;83293;-88
2022/07/08 00:55:19;;;;;;;;;;;19.00;93.10;19.10;100467.00;;;;341271;28;94144;-88
2022/07/08 00:55:31;;;;;;;;;;;19.00;93.10;19.00;100472.00;;;;344259;28;83628;-88
2022/07/08 00:55:43;;;;;;;;;;;19.00;93.10;19.10;100468.00;;;;345292;28;94272;-89
2022/07/08 00:55:55;;;;;;;;;;;19.00;93.10;19.10;100465.00;;;;346171;28;82439;-87
2022/07/08 00:56:07;;;;;;;;;;;19.00;93.20;19.10;100467.00;;;;343990;28;93373;-87
2022/07/08 00:56:20;;;;;;;;;;;19.00;93.20;19.10;100470.00;;;;344637;28;82526;-88
2022/07/08 00:56:32;;;;;;;;;;;19.00;93.20;19.00;100464.00;;;;345221;28;94108;-88
2022/07/08 00:56:43;;;;;;;;;;;19.00;93.20;19.10;100467.00;;;;343424;28;83442;-87
2022/07/08 00:56:55;;;;;;;;;;;19.00;93.20;19.10;100472.00;;;;342693;28;93148;-88
2022/07/08 00:57:07;;;;;;;;;;;19.00;93.20;19.10;100471.00;;;;343129;28;83536;-88
2022/07/08 00:57:19;;;;;;;;;;;19.00;93.20;19.00;100467.00;;;;343869;28;94074;-88
2022/07/08 00:57:31;;;;;;;;;;;19.00;93.20;19.10;100480.00;;;;343380;28;83632;-88
2022/07/08 00:57:43;;;;;;;;;;;19.00;93.50;19.00;100465.00;;;;342694;28;94460;-87
2022/07/08 00:57:55;;;;;;;;;;;19.00;93.30;19.00;100473.00;;;;344703;28;83412;-87
2022/07/08 00:58:06;;;;;;;;;;;19.00;93.20;19.00;100476.00;;;;346015;28;97038;-88
2022/07/08 00:58:18;;;;;;;;;;;19.00;93.20;19.10;100471.00;;;;344556;28;82467;-88
2022/07/08 00:58:31;;;;;;;;;;;19.00;93.30;19.00;100464.00;;;;342369;28;97464;-88
2022/07/08 00:58:43;;;;;;;;;;;19.00;93.30;19.00;100466.00;;;;343128;28;83477;-88
2022/07/08 00:58:55;;;;;;;;;;;19.00;93.20;19.10;100475.00;;;;344351;28;94753;-87
2022/07/08 00:59:07;;;;;;;;;;;19.00;93.30;19.10;100465.00;;;;344795;28;82433;-87